createdAt,value
2017-10-29T00:00:11.038Z,991.22
2017-10-29T00:01:11.046Z,991.17
2017-10-29T00:02:11.053Z,991.13
2017-10-29T00:03:10.928Z,991.07
2017-10-29T00:04:10.919Z,991.13
2017-10-29T00:05:11.067Z,991.06
2017-10-29T00:06:10.997Z,991.13
2017-10-29T00:07:11.068Z,991.02
2017-10-29T00:08:10.998Z,991.11
2017-10-29T00:09:11.006Z,991.04
2017-10-29T00:10:11.072Z,990.97
2017-10-29T00:11:11.034Z,990.85
2017-10-29T00:12:11.069Z,990.97
2017-10-29T00:13:11.004Z,990.88
2017-10-29T00:14:11.074Z,990.94
2017-10-29T00:15:11.001Z,990.82
2017-10-29T00:16:11.071Z,990.76
2017-10-29T00:17:11.005Z,990.79
2017-10-29T00:18:11.004Z,990.77
2017-10-29T00:19:11.009Z,990.68
2017-10-29T00:20:11.005Z,990.70
2017-10-29T00:21:11.075Z,990.65
2017-10-29T00:22:11.076Z,990.37
2017-10-29T00:23:11.009Z,990.64
2017-10-29T00:24:11.078Z,990.64
2017-10-29T00:25:11.009Z,990.61
2017-10-29T00:26:10.962Z,990.51
2017-10-29T00:27:11.041Z,990.52
2017-10-29T00:28:10.963Z,990.58
2017-10-29T00:29:11.056Z,990.43
2017-10-29T00:30:11.035Z,990.42
2017-10-29T00:31:10.949Z,990.40
2017-10-29T00:32:11.047Z,990.37
2017-10-29T00:33:11.004Z,990.34
2017-10-29T00:34:11.043Z,990.37
2017-10-29T00:35:11.014Z,990.32
2017-10-29T00:36:11.020Z,990.25
2017-10-29T00:37:11.015Z,990.32
2017-10-29T00:38:11.085Z,990.34
2017-10-29T00:39:11.017Z,990.07
2017-10-29T00:40:11.115Z,990.26
2017-10-29T00:41:11.085Z,990.27
2017-10-29T00:42:11.110Z,990.16
2017-10-29T00:43:11.018Z,990.22
2017-10-29T00:44:11.087Z,990.15
2017-10-29T00:45:11.051Z,990.35
2017-10-29T00:46:11.041Z,990.35
2017-10-29T00:47:10.987Z,990.23
2017-10-29T00:48:10.943Z,990.20
2017-10-29T00:49:10.940Z,990.19
2017-10-29T00:50:10.995Z,990.08
2017-10-29T00:51:10.988Z,990.15
2017-10-29T00:52:10.942Z,990.29
2017-10-29T00:53:10.948Z,990.16
2017-10-29T00:54:11.040Z,990.15
2017-10-29T00:55:11.094Z,990.18
2017-10-29T00:56:11.042Z,989.94
2017-10-29T00:57:11.095Z,990.01
2017-10-29T00:58:11.029Z,990.02
2017-10-29T00:59:11.025Z,989.91
2017-10-29T01:00:11.097Z,989.92
2017-10-29T01:01:11.027Z,989.91
2017-10-29T01:02:11.098Z,989.84
2017-10-29T01:03:11.033Z,989.87
2017-10-29T01:04:11.101Z,989.91
2017-10-29T01:05:11.120Z,989.68
2017-10-29T01:06:11.039Z,989.77
2017-10-29T01:07:11.102Z,989.72
2017-10-29T01:08:11.036Z,989.82
2017-10-29T01:09:11.104Z,989.76
2017-10-29T01:10:11.035Z,989.66
2017-10-29T01:11:11.105Z,989.89
2017-10-29T01:12:11.037Z,989.71
2017-10-29T01:13:11.104Z,989.75
2017-10-29T01:14:11.042Z,989.73
2017-10-29T01:15:11.107Z,989.65
2017-10-29T01:16:11.041Z,989.54
2017-10-29T01:17:11.113Z,989.61
2017-10-29T01:18:11.044Z,989.70
2017-10-29T01:19:11.108Z,989.63
2017-10-29T01:20:11.107Z,989.59
2017-10-29T01:21:11.045Z,989.54
2017-10-29T01:22:11.110Z,989.50
2017-10-29T01:23:11.083Z,989.35
2017-10-29T01:24:11.112Z,989.42
2017-10-29T01:25:11.074Z,989.37
2017-10-29T01:26:11.113Z,989.24
2017-10-29T01:27:11.046Z,989.19
2017-10-29T01:28:11.113Z,989.22
2017-10-29T01:29:11.049Z,989.11
2017-10-29T01:30:11.115Z,989.08
2017-10-29T01:31:11.114Z,989.13
2017-10-29T01:32:11.049Z,989.09
2017-10-29T01:33:11.117Z,988.98
2017-10-29T01:34:11.049Z,989.06
2017-10-29T01:35:11.117Z,989.02
2017-10-29T01:36:11.001Z,989.08
2017-10-29T01:37:11.049Z,988.98
2017-10-29T01:38:11.122Z,989.00
2017-10-29T01:39:11.052Z,989.03
2017-10-29T01:40:11.121Z,989.02
2017-10-29T01:41:11.054Z,988.90
2017-10-29T01:42:11.124Z,988.89
2017-10-29T01:43:11.124Z,988.72
2017-10-29T01:44:11.125Z,988.85
2017-10-29T01:45:11.060Z,988.80
2017-10-29T01:46:11.126Z,988.83
2017-10-29T01:47:11.125Z,988.88
2017-10-29T01:48:11.057Z,989.01
2017-10-29T01:49:11.131Z,988.72
2017-10-29T01:50:11.062Z,988.88
2017-10-29T01:51:11.127Z,988.77
2017-10-29T01:52:11.059Z,988.73
2017-10-29T01:53:11.130Z,988.74
2017-10-29T01:54:11.131Z,988.61
2017-10-29T01:55:11.061Z,988.61
2017-10-29T01:56:11.133Z,988.63
2017-10-29T01:57:11.130Z,988.51
2017-10-29T01:58:11.064Z,988.57
2017-10-29T01:59:11.167Z,988.50
2017-10-29T02:00:11.134Z,988.45
2017-10-29T02:01:11.065Z,988.55
2017-10-29T02:02:11.137Z,988.47
2017-10-29T02:03:11.107Z,988.55
2017-10-29T02:04:11.136Z,988.56
2017-10-29T02:05:11.131Z,988.47
2017-10-29T02:06:11.123Z,988.39
2017-10-29T02:07:11.020Z,988.31
2017-10-29T02:08:11.106Z,988.45
2017-10-29T02:09:11.044Z,988.49
2017-10-29T02:10:11.076Z,988.32
2017-10-29T02:11:11.112Z,988.26
2017-10-29T02:12:11.134Z,988.17
2017-10-29T02:13:11.074Z,988.12
2017-10-29T02:14:11.047Z,988.09
2017-10-29T02:15:11.141Z,988.08
2017-10-29T02:16:11.076Z,987.96
2017-10-29T02:17:11.143Z,988.12
2017-10-29T02:18:11.147Z,987.98
2017-10-29T02:19:11.143Z,987.97
2017-10-29T02:20:11.144Z,988.42
2017-10-29T02:21:11.079Z,988.27
2017-10-29T02:22:11.147Z,988.02
2017-10-29T02:23:11.147Z,988.01
2017-10-29T02:24:11.148Z,987.92
2017-10-29T02:25:11.107Z,987.85
2017-10-29T02:26:11.157Z,987.81
2017-10-29T02:27:11.084Z,987.85
2017-10-29T02:28:11.107Z,987.73
2017-10-29T02:29:11.114Z,987.75
2017-10-29T02:30:11.011Z,987.95
2017-10-29T02:31:11.135Z,987.98
2017-10-29T02:32:11.023Z,987.95
2017-10-29T02:33:11.027Z,987.81
2017-10-29T02:34:11.116Z,987.74
2017-10-29T02:35:11.154Z,987.81
2017-10-29T02:36:11.083Z,987.68
2017-10-29T02:37:11.154Z,987.85
2017-10-29T02:38:11.088Z,987.63
2017-10-29T02:39:11.157Z,987.92
2017-10-29T02:40:11.156Z,987.59
2017-10-29T02:41:11.040Z,987.70
2017-10-29T02:42:11.159Z,987.74
2017-10-29T02:43:11.088Z,987.91
2017-10-29T02:44:11.087Z,987.79
2017-10-29T02:45:11.160Z,987.55
2017-10-29T02:46:11.090Z,987.87
2017-10-29T02:47:11.162Z,987.80
2017-10-29T02:48:11.094Z,987.98
2017-10-29T02:49:11.161Z,987.92
2017-10-29T02:50:11.116Z,987.81
2017-10-29T02:51:11.163Z,987.96
2017-10-29T02:52:11.095Z,987.93
2017-10-29T02:53:11.120Z,987.84
2017-10-29T02:54:11.046Z,987.97
2017-10-29T02:55:11.097Z,988.13
2017-10-29T02:56:11.227Z,987.94
2017-10-29T02:57:11.168Z,987.83
2017-10-29T02:58:11.174Z,987.84
2017-10-29T02:59:11.169Z,987.87
2017-10-29T03:00:11.101Z,987.84
2017-10-29T03:01:11.111Z,987.77
2017-10-29T03:02:11.166Z,987.94
2017-10-29T03:03:11.170Z,987.90
2017-10-29T03:04:11.105Z,987.78
2017-10-29T03:05:11.105Z,987.55
2017-10-29T03:06:11.172Z,987.77
2017-10-29T03:07:11.118Z,987.63
2017-10-29T03:08:11.172Z,987.74
2017-10-29T03:09:11.062Z,987.77
2017-10-29T03:10:11.217Z,987.87
2017-10-29T03:11:11.174Z,988.00
2017-10-29T03:12:11.176Z,987.87
2017-10-29T03:13:11.184Z,987.83
2017-10-29T03:14:11.106Z,987.84
2017-10-29T03:15:11.109Z,987.79
2017-10-29T03:16:11.181Z,987.81
2017-10-29T03:17:11.118Z,987.53
2017-10-29T03:18:11.152Z,987.93
2017-10-29T03:19:11.179Z,987.83
2017-10-29T03:20:11.112Z,987.86
2017-10-29T03:21:11.179Z,987.82
2017-10-29T03:22:11.110Z,987.81
2017-10-29T03:23:11.181Z,987.64
2017-10-29T03:24:11.145Z,987.62
2017-10-29T03:25:11.183Z,987.35
2017-10-29T03:26:11.114Z,987.63
2017-10-29T03:27:11.186Z,987.61
2017-10-29T03:28:11.140Z,987.78
2017-10-29T03:29:11.116Z,988.12
2017-10-29T03:30:11.166Z,987.80
2017-10-29T03:31:11.120Z,987.88
2017-10-29T03:32:11.119Z,987.88
2017-10-29T03:33:11.190Z,987.79
2017-10-29T03:34:11.117Z,987.89
2017-10-29T03:35:11.198Z,987.75
2017-10-29T03:36:11.180Z,987.79
2017-10-29T03:37:11.134Z,988.07
2017-10-29T03:38:11.174Z,988.28
2017-10-29T03:39:11.138Z,988.03
2017-10-29T03:40:11.121Z,987.94
2017-10-29T03:41:11.167Z,987.97
2017-10-29T03:42:11.125Z,987.86
2017-10-29T03:43:11.090Z,988.25
2017-10-29T03:44:11.096Z,987.99
2017-10-29T03:45:11.090Z,988.13
2017-10-29T03:46:11.196Z,988.13
2017-10-29T03:47:11.128Z,987.99
2017-10-29T03:48:11.196Z,988.25
2017-10-29T03:49:11.128Z,988.12
2017-10-29T03:50:11.197Z,988.38
2017-10-29T03:51:11.198Z,988.32
2017-10-29T03:52:11.199Z,988.32
2017-10-29T03:53:11.155Z,988.42
2017-10-29T03:54:11.133Z,988.22
2017-10-29T03:55:11.199Z,988.38
2017-10-29T03:56:11.185Z,988.29
2017-10-29T03:57:11.086Z,988.41
2017-10-29T03:58:11.189Z,988.40
2017-10-29T03:59:11.155Z,988.35
2017-10-29T04:00:11.132Z,988.65
2017-10-29T04:01:11.169Z,988.38
2017-10-29T04:02:11.188Z,988.47
2017-10-29T04:03:11.206Z,988.46
2017-10-29T04:04:11.086Z,988.55
2017-10-29T04:05:11.112Z,988.62
2017-10-29T04:06:11.210Z,988.54
2017-10-29T04:07:11.156Z,988.62
2017-10-29T04:08:11.209Z,988.53
2017-10-29T04:09:11.136Z,988.61
2017-10-29T04:10:11.138Z,988.52
2017-10-29T04:11:11.210Z,988.57
2017-10-29T04:12:11.142Z,988.74
2017-10-29T04:13:11.241Z,988.58
2017-10-29T04:14:11.174Z,988.45
2017-10-29T04:15:11.145Z,988.59
2017-10-29T04:16:11.215Z,988.49
2017-10-29T04:17:11.167Z,988.59
2017-10-29T04:18:11.215Z,988.60
2017-10-29T04:19:11.148Z,988.58
2017-10-29T04:20:11.216Z,988.64
2017-10-29T04:21:11.215Z,988.69
2017-10-29T04:22:11.154Z,988.61
2017-10-29T04:23:11.216Z,988.59
2017-10-29T04:24:11.216Z,988.55
2017-10-29T04:25:11.151Z,988.63
2017-10-29T04:26:11.221Z,988.71
2017-10-29T04:27:11.248Z,988.76
2017-10-29T04:28:11.148Z,988.74
2017-10-29T04:29:11.226Z,988.59
2017-10-29T04:30:11.220Z,988.72
2017-10-29T04:31:11.222Z,988.85
2017-10-29T04:32:11.158Z,988.66
2017-10-29T04:33:11.221Z,988.74
2017-10-29T04:34:11.154Z,988.78
2017-10-29T04:35:11.224Z,988.73
2017-10-29T04:36:11.153Z,988.78
2017-10-29T04:37:11.228Z,988.98
2017-10-29T04:38:11.224Z,988.87
2017-10-29T04:39:11.159Z,988.94
2017-10-29T04:40:11.159Z,988.98
2017-10-29T04:41:11.228Z,989.18
2017-10-29T04:42:11.156Z,988.99
2017-10-29T04:43:11.237Z,989.22
2017-10-29T04:44:11.253Z,989.52
2017-10-29T04:45:11.164Z,989.34
2017-10-29T04:46:11.096Z,989.35
2017-10-29T04:47:11.105Z,989.56
2017-10-29T04:48:11.049Z,989.48
2017-10-29T04:49:11.073Z,989.20
2017-10-29T04:50:11.111Z,989.33
2017-10-29T04:51:11.163Z,989.31
2017-10-29T04:52:11.156Z,989.17
2017-10-29T04:53:11.202Z,989.15
2017-10-29T04:54:11.053Z,989.27
2017-10-29T04:55:11.144Z,989.25
2017-10-29T04:56:11.171Z,989.36
2017-10-29T04:57:11.240Z,989.40
2017-10-29T04:58:11.168Z,989.49
2017-10-29T04:59:11.241Z,989.39
2017-10-29T05:00:11.171Z,989.38
2017-10-29T05:01:11.271Z,989.63
2017-10-29T05:02:11.173Z,989.50
2017-10-29T05:03:11.240Z,989.73
2017-10-29T05:04:11.177Z,989.78
2017-10-29T05:05:11.173Z,989.83
2017-10-29T05:06:11.247Z,989.79
2017-10-29T05:07:11.240Z,989.81
2017-10-29T05:08:11.242Z,989.80
2017-10-29T05:09:11.177Z,989.86
2017-10-29T05:10:11.275Z,989.78
2017-10-29T05:11:11.246Z,989.75
2017-10-29T05:12:11.245Z,989.94
2017-10-29T05:13:11.176Z,989.93
2017-10-29T05:14:11.180Z,989.85
2017-10-29T05:15:11.249Z,989.88
2017-10-29T05:16:11.147Z,989.90
2017-10-29T05:17:11.100Z,990.03
2017-10-29T05:18:11.097Z,990.14
2017-10-29T05:19:11.258Z,990.27
2017-10-29T05:20:11.149Z,990.20
2017-10-29T05:21:11.197Z,990.33
2017-10-29T05:22:11.262Z,990.20
2017-10-29T05:23:11.176Z,990.31
2017-10-29T05:24:11.203Z,990.27
2017-10-29T05:25:11.109Z,990.44
2017-10-29T05:26:11.258Z,990.44
2017-10-29T05:27:11.203Z,990.34
2017-10-29T05:28:11.256Z,990.16
2017-10-29T05:29:11.256Z,990.14
2017-10-29T05:30:11.220Z,990.25
2017-10-29T05:31:11.258Z,990.19
2017-10-29T05:32:11.194Z,990.23
2017-10-29T05:33:11.187Z,990.13
2017-10-29T05:34:11.188Z,990.25
2017-10-29T05:35:11.187Z,990.18
2017-10-29T05:36:11.158Z,990.33
2017-10-29T05:37:11.108Z,990.25
2017-10-29T05:38:11.204Z,990.33
2017-10-29T05:39:11.157Z,990.32
2017-10-29T05:40:11.110Z,990.46
2017-10-29T05:41:11.113Z,990.52
2017-10-29T05:42:11.171Z,990.61
2017-10-29T05:43:11.272Z,990.71
2017-10-29T05:44:11.113Z,990.81
2017-10-29T05:45:11.213Z,990.83
2017-10-29T05:46:11.255Z,990.87
2017-10-29T05:47:11.194Z,990.85
2017-10-29T05:48:11.253Z,990.92
2017-10-29T05:49:11.235Z,991.23
2017-10-29T05:50:11.176Z,991.09
2017-10-29T05:51:11.179Z,991.12
2017-10-29T05:52:11.202Z,991.11
2017-10-29T05:53:11.137Z,991.19
2017-10-29T05:54:11.173Z,991.20
2017-10-29T05:55:11.267Z,991.29
2017-10-29T05:56:11.259Z,991.29
2017-10-29T05:57:11.243Z,991.29
2017-10-29T05:58:11.260Z,991.33
2017-10-29T05:59:11.176Z,991.42
2017-10-29T06:00:11.217Z,991.44
2017-10-29T06:01:11.226Z,991.31
2017-10-29T06:02:11.175Z,991.53
2017-10-29T06:03:11.291Z,991.45
2017-10-29T06:04:11.182Z,991.46
2017-10-29T06:05:11.298Z,991.54
2017-10-29T06:06:11.310Z,991.61
2017-10-29T06:07:11.280Z,991.56
2017-10-29T06:08:11.210Z,991.60
2017-10-29T06:09:11.279Z,991.57
2017-10-29T06:10:11.212Z,991.82
2017-10-29T06:11:11.281Z,991.58
2017-10-29T06:12:11.218Z,991.73
2017-10-29T06:13:11.222Z,991.58
2017-10-29T06:14:11.284Z,991.63
2017-10-29T06:15:11.283Z,991.64
2017-10-29T06:16:11.187Z,991.72
2017-10-29T06:17:11.180Z,991.72
2017-10-29T06:18:11.274Z,991.74
2017-10-29T06:19:11.169Z,991.79
2017-10-29T06:20:11.258Z,991.96
2017-10-29T06:21:11.275Z,991.87
2017-10-29T06:22:11.279Z,991.93
2017-10-29T06:23:11.272Z,991.98
2017-10-29T06:24:11.283Z,991.92
2017-10-29T06:25:11.239Z,992.04
2017-10-29T06:26:11.259Z,992.06
2017-10-29T06:27:11.158Z,991.90
2017-10-29T06:28:11.174Z,992.22
2017-10-29T06:29:11.198Z,992.21
2017-10-29T06:30:11.175Z,992.10
2017-10-29T06:31:11.214Z,992.15
2017-10-29T06:32:11.281Z,992.14
2017-10-29T06:33:11.290Z,992.25
2017-10-29T06:34:11.278Z,992.19
2017-10-29T06:35:11.195Z,992.26
2017-10-29T06:36:11.256Z,992.13
2017-10-29T06:37:11.224Z,992.25
2017-10-29T06:38:11.168Z,992.37
2017-10-29T06:39:11.224Z,992.38
2017-10-29T06:40:11.200Z,992.35
2017-10-29T06:41:11.252Z,992.38
2017-10-29T06:42:11.158Z,992.41
2017-10-29T06:43:11.243Z,992.41
2017-10-29T06:44:11.263Z,992.43
2017-10-29T06:45:11.225Z,992.54
2017-10-29T06:46:11.147Z,992.43
2017-10-29T06:47:11.193Z,992.58
2017-10-29T06:48:11.181Z,992.65
2017-10-29T06:49:11.195Z,992.70
2017-10-29T06:50:11.194Z,992.67
2017-10-29T06:51:11.199Z,992.88
2017-10-29T06:52:11.160Z,992.83
2017-10-29T06:53:11.202Z,992.83
2017-10-29T06:54:11.249Z,992.97
2017-10-29T06:55:11.201Z,992.98
2017-10-29T06:56:11.309Z,992.93
2017-10-29T06:57:11.231Z,992.94
2017-10-29T06:58:11.305Z,992.89
2017-10-29T06:59:11.232Z,993.02
2017-10-29T07:00:11.310Z,992.96
2017-10-29T07:01:11.236Z,992.90
2017-10-29T07:02:11.309Z,992.95
2017-10-29T07:03:11.236Z,993.00
2017-10-29T07:04:11.312Z,993.01
2017-10-29T07:05:11.233Z,993.16
2017-10-29T07:06:11.131Z,993.10
2017-10-29T07:07:11.241Z,993.15
2017-10-29T07:08:11.188Z,993.13
2017-10-29T07:09:11.259Z,993.22
2017-10-29T07:10:11.215Z,993.28
2017-10-29T07:11:11.182Z,993.29
2017-10-29T07:12:11.128Z,993.31
2017-10-29T07:13:11.147Z,993.29
2017-10-29T07:14:11.135Z,993.35
2017-10-29T07:15:11.132Z,993.37
2017-10-29T07:16:11.244Z,993.33
2017-10-29T07:17:11.354Z,993.52
2017-10-29T07:18:11.205Z,993.47
2017-10-29T07:19:11.247Z,993.42
2017-10-29T07:20:11.319Z,993.40
2017-10-29T07:21:11.248Z,993.48
2017-10-29T07:22:11.328Z,993.45
2017-10-29T07:23:11.254Z,993.46
2017-10-29T07:24:11.332Z,993.56
2017-10-29T07:25:11.250Z,993.46
2017-10-29T07:26:11.321Z,993.61
2017-10-29T07:27:11.247Z,993.56
2017-10-29T07:28:11.250Z,993.59
2017-10-29T07:29:11.251Z,993.56
2017-10-29T07:30:11.289Z,993.51
2017-10-29T07:31:11.277Z,993.63
2017-10-29T07:32:11.252Z,993.62
2017-10-29T07:33:11.315Z,993.72
2017-10-29T07:34:11.254Z,993.69
2017-10-29T07:35:11.318Z,993.84
2017-10-29T07:36:11.309Z,993.83
2017-10-29T07:37:11.264Z,993.84
2017-10-29T07:38:11.313Z,993.90
2017-10-29T07:39:11.232Z,994.00
2017-10-29T07:40:11.240Z,994.05
2017-10-29T07:41:11.285Z,994.12
2017-10-29T07:42:11.329Z,994.10
2017-10-29T07:43:11.232Z,994.10
2017-10-29T07:44:11.229Z,994.20
2017-10-29T07:45:11.332Z,994.10
2017-10-29T07:46:11.321Z,994.12
2017-10-29T07:47:11.194Z,994.12
2017-10-29T07:48:11.296Z,994.20
2017-10-29T07:49:11.292Z,994.18
2017-10-29T07:50:11.295Z,994.32
2017-10-29T07:51:11.210Z,994.29
2017-10-29T07:52:11.318Z,994.41
2017-10-29T07:53:11.322Z,994.41
2017-10-29T07:54:11.374Z,994.33
2017-10-29T07:55:11.321Z,994.38
2017-10-29T07:56:11.272Z,994.35
2017-10-29T07:57:11.290Z,994.38
2017-10-29T07:58:11.268Z,994.33
2017-10-29T07:59:11.329Z,994.40
2017-10-29T08:00:11.247Z,994.39
2017-10-29T08:01:11.244Z,994.32
2017-10-29T08:02:11.330Z,994.38
2017-10-29T08:03:11.244Z,994.42
2017-10-29T08:04:11.226Z,994.45
2017-10-29T08:05:11.346Z,994.47
2017-10-29T08:06:11.350Z,994.51
2017-10-29T08:07:11.278Z,994.58
2017-10-29T08:08:11.352Z,994.58
2017-10-29T08:09:11.282Z,994.67
2017-10-29T08:10:11.349Z,994.66
2017-10-29T08:11:11.284Z,994.75
2017-10-29T08:12:11.351Z,994.70
2017-10-29T08:13:11.352Z,994.69
2017-10-29T08:14:11.276Z,994.64
2017-10-29T08:15:11.349Z,994.57
2017-10-29T08:16:11.352Z,994.56
2017-10-29T08:17:11.352Z,994.62
2017-10-29T08:18:11.232Z,994.66
2017-10-29T08:19:11.324Z,994.77
2017-10-29T08:20:11.343Z,994.71
2017-10-29T08:21:11.238Z,994.77
2017-10-29T08:22:11.324Z,994.71
2017-10-29T08:23:11.259Z,994.73
2017-10-29T08:24:11.356Z,994.64
2017-10-29T08:25:11.259Z,994.70
2017-10-29T08:26:11.324Z,994.82
2017-10-29T08:27:11.329Z,994.79
2017-10-29T08:28:11.326Z,994.96
2017-10-29T08:29:11.261Z,994.69
2017-10-29T08:30:11.327Z,995.06
2017-10-29T08:31:11.350Z,995.01
2017-10-29T08:32:11.247Z,995.00
2017-10-29T08:33:11.362Z,995.00
2017-10-29T08:34:11.240Z,995.52
2017-10-29T08:35:11.355Z,995.30
2017-10-29T08:36:11.364Z,995.31
2017-10-29T08:37:11.364Z,995.38
2017-10-29T08:38:11.299Z,995.52
2017-10-29T08:39:11.368Z,995.51
2017-10-29T08:40:11.301Z,995.54
2017-10-29T08:41:11.367Z,995.59
2017-10-29T08:42:11.299Z,995.52
2017-10-29T08:43:11.369Z,995.62
2017-10-29T08:44:11.329Z,995.60
2017-10-29T08:45:11.370Z,995.67
2017-10-29T08:46:11.268Z,995.66
2017-10-29T08:47:11.311Z,995.48
2017-10-29T08:48:11.314Z,995.48
2017-10-29T08:49:11.269Z,995.55
2017-10-29T08:50:11.313Z,995.55
2017-10-29T08:51:11.331Z,995.60
2017-10-29T08:52:11.269Z,995.45
2017-10-29T08:53:11.227Z,995.45
2017-10-29T08:54:11.321Z,995.48
2017-10-29T08:55:11.321Z,995.48
2017-10-29T08:56:11.315Z,995.55
2017-10-29T08:57:11.285Z,995.54
2017-10-29T08:58:11.315Z,995.54
2017-10-29T08:59:11.324Z,995.47
2017-10-29T09:00:11.378Z,995.64
2017-10-29T09:01:11.302Z,995.58
2017-10-29T09:02:11.345Z,995.51
2017-10-29T09:03:11.375Z,995.54
2017-10-29T09:04:11.262Z,995.51
2017-10-29T09:05:11.345Z,995.55
2017-10-29T09:06:11.382Z,995.65
2017-10-29T09:07:11.308Z,995.64
2017-10-29T09:08:11.383Z,995.76
2017-10-29T09:09:11.308Z,995.74
2017-10-29T09:10:11.312Z,995.88
2017-10-29T09:11:11.418Z,995.96
2017-10-29T09:12:11.422Z,995.83
2017-10-29T09:13:11.316Z,996.02
2017-10-29T09:14:11.272Z,996.05
2017-10-29T09:15:11.327Z,995.94
2017-10-29T09:16:11.389Z,996.15
2017-10-29T09:17:11.318Z,996.01
2017-10-29T09:18:11.396Z,996.03
2017-10-29T09:19:11.323Z,995.98
2017-10-29T09:20:11.392Z,996.02
2017-10-29T09:21:11.320Z,996.07
2017-10-29T09:22:11.391Z,996.02
2017-10-29T09:23:11.324Z,996.11
2017-10-29T09:24:11.393Z,996.08
2017-10-29T09:25:11.345Z,996.19
2017-10-29T09:26:11.279Z,996.18
2017-10-29T09:27:11.347Z,996.14
2017-10-29T09:28:11.298Z,996.18
2017-10-29T09:29:11.348Z,996.10
2017-10-29T09:30:11.296Z,996.20
2017-10-29T09:31:11.303Z,996.19
2017-10-29T09:32:11.285Z,996.19
2017-10-29T09:33:11.298Z,996.19
2017-10-29T09:34:11.278Z,996.19
2017-10-29T09:35:11.303Z,996.16
2017-10-29T09:36:11.357Z,996.16
2017-10-29T09:37:11.350Z,996.31
2017-10-29T09:38:11.382Z,996.23
2017-10-29T09:39:11.262Z,996.34
2017-10-29T09:40:11.334Z,996.25
2017-10-29T09:41:11.288Z,996.36
2017-10-29T09:42:11.334Z,996.33
2017-10-29T09:43:11.264Z,996.27
2017-10-29T09:44:11.387Z,996.41
2017-10-29T09:45:11.334Z,996.52
2017-10-29T09:46:11.376Z,996.50
2017-10-29T09:47:11.371Z,996.49
2017-10-29T09:48:11.329Z,996.49
2017-10-29T09:49:11.306Z,996.52
2017-10-29T09:50:11.393Z,996.54
2017-10-29T09:51:11.268Z,996.54
2017-10-29T09:52:11.355Z,996.56
2017-10-29T09:53:11.345Z,996.52
2017-10-29T09:54:11.405Z,996.58
2017-10-29T09:55:11.379Z,996.52
2017-10-29T09:56:11.340Z,996.62
2017-10-29T09:57:11.411Z,996.64
2017-10-29T09:58:11.342Z,996.60
2017-10-29T09:59:11.336Z,996.63
2017-10-29T10:00:11.300Z,996.66
2017-10-29T10:01:11.337Z,996.69
2017-10-29T10:02:11.416Z,996.71
2017-10-29T10:03:11.336Z,996.74
2017-10-29T10:04:11.417Z,996.71
2017-10-29T10:05:11.413Z,996.76
2017-10-29T10:06:11.378Z,996.77
2017-10-29T10:07:11.416Z,996.77
2017-10-29T10:08:11.350Z,996.73
2017-10-29T10:09:11.424Z,996.84
2017-10-29T10:10:11.346Z,996.78
2017-10-29T10:11:11.420Z,996.82
2017-10-29T10:12:11.348Z,996.83
2017-10-29T10:13:11.421Z,996.82
2017-10-29T10:14:11.352Z,997.13
2017-10-29T10:15:11.422Z,997.07
2017-10-29T10:16:11.362Z,997.04
2017-10-29T10:17:11.423Z,996.98
2017-10-29T10:18:11.426Z,996.92
2017-10-29T10:19:11.356Z,996.88
2017-10-29T10:20:11.366Z,996.95
2017-10-29T10:21:11.427Z,997.08
2017-10-29T10:22:11.430Z,997.07
2017-10-29T10:23:11.367Z,997.03
2017-10-29T10:24:11.352Z,996.94
2017-10-29T10:25:11.428Z,996.88
2017-10-29T10:26:11.358Z,997.13
2017-10-29T10:27:11.356Z,996.96
2017-10-29T10:28:11.376Z,997.04
2017-10-29T10:29:11.288Z,997.07
2017-10-29T10:30:11.343Z,997.05
2017-10-29T10:31:11.286Z,997.15
2017-10-29T10:32:11.367Z,996.99
2017-10-29T10:33:11.392Z,997.19
2017-10-29T10:34:11.381Z,997.35
2017-10-29T10:35:11.323Z,997.39
2017-10-29T10:36:11.416Z,997.39
2017-10-29T10:37:11.385Z,997.53
2017-10-29T10:38:11.301Z,997.65
2017-10-29T10:39:11.384Z,997.61
2017-10-29T10:40:11.325Z,997.54
2017-10-29T10:41:11.299Z,997.54
2017-10-29T10:42:11.425Z,997.45
2017-10-29T10:43:11.345Z,997.51
2017-10-29T10:44:11.414Z,997.58
2017-10-29T10:45:11.373Z,997.49
2017-10-29T10:46:11.312Z,997.58
2017-10-29T10:47:11.441Z,997.51
2017-10-29T10:48:11.446Z,997.59
2017-10-29T10:49:11.369Z,997.54
2017-10-29T10:50:11.443Z,997.58
2017-10-29T10:51:11.377Z,997.69
2017-10-29T10:52:11.372Z,997.70
2017-10-29T10:53:11.451Z,997.62
2017-10-29T10:54:11.373Z,997.53
2017-10-29T10:55:11.446Z,997.63
2017-10-29T10:56:11.393Z,997.65
2017-10-29T10:57:11.331Z,997.60
2017-10-29T10:58:11.379Z,997.68
2017-10-29T10:59:11.306Z,997.66
2017-10-29T11:00:11.409Z,997.57
2017-10-29T11:01:11.392Z,997.60
2017-10-29T11:02:11.342Z,997.64
2017-10-29T11:03:11.379Z,997.59
2017-10-29T11:04:11.431Z,997.60
2017-10-29T11:05:11.378Z,997.61
2017-10-29T11:06:11.314Z,997.83
2017-10-29T11:07:11.417Z,997.71
2017-10-29T11:08:11.418Z,997.69
2017-10-29T11:09:11.362Z,997.72
2017-10-29T11:10:11.332Z,997.66
2017-10-29T11:11:11.371Z,997.88
2017-10-29T11:12:11.416Z,997.71
2017-10-29T11:13:11.440Z,997.52
2017-10-29T11:14:11.354Z,997.66
2017-10-29T11:15:11.369Z,997.72
2017-10-29T11:16:11.406Z,997.76
2017-10-29T11:17:11.407Z,997.80
2017-10-29T11:18:11.446Z,998.08
2017-10-29T11:19:11.383Z,997.89
2017-10-29T11:20:11.442Z,997.94
2017-10-29T11:21:11.423Z,997.97
2017-10-29T11:22:11.361Z,998.03
2017-10-29T11:23:11.462Z,998.07
2017-10-29T11:24:11.344Z,997.86
2017-10-29T11:25:11.474Z,997.94
2017-10-29T11:26:11.396Z,997.92
2017-10-29T11:27:11.374Z,997.82
2017-10-29T11:28:11.341Z,997.86
2017-10-29T11:29:11.410Z,997.93
2017-10-29T11:30:11.462Z,997.84
2017-10-29T11:31:11.455Z,997.97
2017-10-29T11:32:11.464Z,998.08
2017-10-29T11:33:11.409Z,998.20
2017-10-29T11:34:11.412Z,997.96
2017-10-29T11:35:11.377Z,998.05
2017-10-29T11:36:11.452Z,998.06
2017-10-29T11:37:11.432Z,997.93
2017-10-29T11:38:11.435Z,997.90
2017-10-29T11:39:11.400Z,997.92
2017-10-29T11:40:11.358Z,997.93
2017-10-29T11:41:11.429Z,997.99
2017-10-29T11:42:11.454Z,998.16
2017-10-29T11:43:11.376Z,998.49
2017-10-29T11:44:11.362Z,998.20
2017-10-29T11:45:11.402Z,998.12
2017-10-29T11:46:11.336Z,998.11
2017-10-29T11:47:11.404Z,998.21
2017-10-29T11:48:11.479Z,998.29
2017-10-29T11:49:11.434Z,998.28
2017-10-29T11:50:11.481Z,998.27
2017-10-29T11:51:11.480Z,998.28
2017-10-29T11:52:11.406Z,998.33
2017-10-29T11:53:11.406Z,998.40
2017-10-29T11:54:11.482Z,998.38
2017-10-29T11:55:11.483Z,998.30
2017-10-29T11:56:11.407Z,998.45
2017-10-29T11:57:11.340Z,998.55
2017-10-29T11:58:11.369Z,998.49
2017-10-29T11:59:11.390Z,998.49
2017-10-29T12:00:11.446Z,998.40
2017-10-29T12:01:11.370Z,998.51
2017-10-29T12:02:11.396Z,998.57
2017-10-29T12:03:11.392Z,998.59
2017-10-29T12:04:11.366Z,998.61
2017-10-29T12:05:11.359Z,998.73
2017-10-29T12:06:11.421Z,998.81
2017-10-29T12:07:11.513Z,998.84
2017-10-29T12:08:11.490Z,998.97
2017-10-29T12:09:11.424Z,999.01
2017-10-29T12:10:11.493Z,998.89
2017-10-29T12:11:11.421Z,998.90
2017-10-29T12:12:11.491Z,998.85
2017-10-29T12:13:11.420Z,998.81
2017-10-29T12:14:11.493Z,998.85
2017-10-29T12:15:11.423Z,998.85
2017-10-29T12:16:11.495Z,998.83
2017-10-29T12:17:11.434Z,998.85
2017-10-29T12:18:11.502Z,998.89
2017-10-29T12:19:11.423Z,998.78
2017-10-29T12:20:11.518Z,998.90
2017-10-29T12:21:11.425Z,998.88
2017-10-29T12:22:11.433Z,999.09
2017-10-29T12:23:11.500Z,998.96
2017-10-29T12:24:11.429Z,998.79
2017-10-29T12:25:11.500Z,998.75
2017-10-29T12:26:11.435Z,998.74
2017-10-29T12:27:11.384Z,998.76
2017-10-29T12:28:11.430Z,998.78